createdAt,value
2018-12-10T00:01:02.809Z,0.77
2018-12-10T00:03:35.226Z,0.66
2018-12-10T00:06:03.301Z,0.73
2018-12-10T00:08:31.270Z,0.90
2018-12-10T00:10:59.322Z,0.87
2018-12-10T00:13:27.425Z,0.77
2018-12-10T00:15:55.471Z,0.63
2018-12-10T00:18:23.614Z,0.59
2018-12-10T00:20:51.660Z,0.81
2018-12-10T00:23:19.668Z,0.69
2018-12-10T00:25:47.819Z,0.69
2018-12-10T00:28:15.855Z,0.77
2018-12-10T00:30:43.885Z,0.65
2018-12-10T00:33:11.975Z,0.62
2018-12-10T00:35:40.053Z,0.57
2018-12-10T00:38:07.997Z,0.64
2018-12-10T00:40:36.173Z,0.65
2018-12-10T00:43:04.261Z,0.64
2018-12-10T00:45:32.309Z,0.76
2018-12-10T00:48:00.370Z,0.61
2018-12-10T00:50:28.395Z,0.58
2018-12-10T00:52:56.472Z,0.70
2018-12-10T00:55:24.516Z,0.60
2018-12-10T00:57:52.676Z,0.62
2018-12-10T01:00:20.771Z,0.59
2018-12-10T01:02:48.865Z,0.63
2018-12-10T01:05:17.074Z,0.66
2018-12-10T01:07:45.074Z,0.67
2018-12-10T01:10:13.215Z,0.65
2018-12-10T01:12:41.200Z,0.64
2018-12-10T01:15:09.169Z,0.65
2018-12-10T01:17:37.152Z,0.61
2018-12-10T01:20:05.689Z,0.61
2018-12-10T01:22:33.633Z,0.55
2018-12-10T01:25:01.708Z,0.56
2018-12-10T01:27:29.676Z,0.59
2018-12-10T01:29:57.694Z,0.57
2018-12-10T01:32:25.826Z,0.54
2018-12-10T01:34:53.805Z,0.52
2018-12-10T01:37:21.832Z,0.56
2018-12-10T01:39:49.891Z,0.52
2018-12-10T01:42:17.893Z,0.56
2018-12-10T01:44:45.924Z,0.54
2018-12-10T01:47:13.999Z,0.50
2018-12-10T01:49:41.995Z,0.48
2018-12-10T01:52:09.995Z,0.39
2018-12-10T01:54:37.986Z,0.43
2018-12-10T01:57:05.946Z,0.44
2018-12-10T01:59:33.907Z,0.46
2018-12-10T02:02:01.932Z,0.45
2018-12-10T02:04:29.885Z,0.48
2018-12-10T02:06:57.816Z,0.42
2018-12-10T02:09:25.856Z,0.42
2018-12-10T02:11:53.841Z,0.37
2018-12-10T02:14:21.851Z,0.46
2018-12-10T02:16:49.853Z,0.44
2018-12-10T02:19:17.808Z,0.47
2018-12-10T02:21:45.826Z,0.50
2018-12-10T02:24:13.878Z,0.56
2018-12-10T02:26:41.852Z,0.51
2018-12-10T02:29:14.314Z,0.52
2018-12-10T02:31:43.076Z,0.48
2018-12-10T02:34:11.093Z,0.42
2018-12-10T02:36:39.067Z,0.46
2018-12-10T02:39:06.996Z,0.48
2018-12-10T02:41:34.990Z,0.53
2018-12-10T02:44:03.028Z,0.49
2018-12-10T02:46:31.073Z,0.63
2018-12-10T02:48:59.179Z,0.53
2018-12-10T02:51:27.205Z,0.42
2018-12-10T02:53:55.216Z,0.38
2018-12-10T02:56:23.355Z,0.43
2018-12-10T02:58:51.384Z,0.42
2018-12-10T03:01:19.337Z,0.39
2018-12-10T03:03:47.477Z,0.42
2018-12-10T03:06:15.482Z,0.38
2018-12-10T03:08:43.397Z,0.30
2018-12-10T03:11:11.465Z,0.25
2018-12-10T03:13:39.511Z,0.35
2018-12-10T03:16:07.660Z,0.30
2018-12-10T03:18:35.638Z,0.29
2018-12-10T03:21:03.606Z,0.25
2018-12-10T03:23:31.574Z,0.23
2018-12-10T03:25:59.578Z,0.14
2018-12-10T03:28:27.549Z,0.22
2018-12-10T03:30:55.688Z,0.26
2018-12-10T03:33:23.653Z,0.26
2018-12-10T03:35:51.653Z,0.18
2018-12-10T03:38:19.587Z,0.19
2018-12-10T03:40:47.590Z,0.26
2018-12-10T03:43:15.767Z,0.22
2018-12-10T03:45:43.775Z,0.27
2018-12-10T03:48:11.812Z,0.29
2018-12-10T03:50:39.874Z,0.34
2018-12-10T03:53:07.799Z,0.29
2018-12-10T03:55:35.768Z,0.28
2018-12-10T03:58:03.789Z,0.36
2018-12-10T04:00:31.778Z,0.35
2018-12-10T04:02:59.733Z,0.30
2018-12-10T04:05:27.741Z,0.25
2018-12-10T04:07:55.765Z,0.22
2018-12-10T04:10:23.747Z,0.14
2018-12-10T04:12:51.737Z,0.15
2018-12-10T04:15:19.852Z,0.22
2018-12-10T04:17:48.070Z,0.16
2018-12-10T04:20:16.020Z,0.20
2018-12-10T04:22:45.116Z,0.19
2018-12-10T04:25:13.226Z,0.17
2018-12-10T04:27:42.071Z,0.16
2018-12-10T04:30:10.055Z,0.13
2018-12-10T04:32:38.106Z,0.15
2018-12-10T04:35:06.152Z,0.15
2018-12-10T04:37:34.169Z,0.16
2018-12-10T04:40:02.158Z,0.19
2018-12-10T04:42:30.154Z,0.18
2018-12-10T04:44:58.126Z,0.28
2018-12-10T04:47:26.133Z,0.23
2018-12-10T04:49:54.134Z,0.22
2018-12-10T04:52:22.106Z,0.19
2018-12-10T04:54:50.084Z,0.26
2018-12-10T04:57:18.089Z,0.33
2018-12-10T04:59:52.690Z,0.19
2018-12-10T05:02:16.295Z,0.20
2018-12-10T05:04:44.547Z,0.23
2018-12-10T05:07:12.911Z,0.20
2018-12-10T05:09:41.048Z,0.31
2018-12-10T05:12:09.250Z,0.30
2018-12-10T05:14:37.407Z,0.26
2018-12-10T05:17:05.700Z,0.24
2018-12-10T05:19:33.955Z,0.28
2018-12-10T05:22:02.012Z,0.34
2018-12-10T05:24:30.278Z,0.30
2018-12-10T05:26:58.484Z,0.27
2018-12-10T05:29:26.569Z,0.26
2018-12-10T05:31:54.730Z,0.26
2018-12-10T05:34:22.882Z,0.25
2018-12-10T05:36:50.905Z,0.27
2018-12-10T05:39:19.813Z,0.29
2018-12-10T05:41:48.060Z,0.28
2018-12-10T05:44:16.231Z,0.21
2018-12-10T05:46:44.441Z,0.37
2018-12-10T05:49:12.568Z,0.32
2018-12-10T05:51:40.686Z,0.26
2018-12-10T05:54:08.815Z,0.39
2018-12-10T05:56:36.940Z,0.36
2018-12-10T05:59:05.141Z,0.26
2018-12-10T06:01:33.409Z,0.33
2018-12-10T06:04:01.878Z,0.38
2018-12-10T06:06:30.785Z,0.35
2018-12-10T06:08:59.411Z,0.46
2018-12-10T06:11:27.972Z,0.45
2018-12-10T06:13:58.529Z,0.35
2018-12-10T06:16:26.965Z,0.37
2018-12-10T06:18:55.288Z,0.39
2018-12-10T06:21:23.690Z,0.48
2018-12-10T06:23:52.117Z,0.48
2018-12-10T06:26:20.519Z,0.38
2018-12-10T06:28:48.867Z,0.51
2018-12-10T06:31:17.347Z,0.45
2018-12-10T06:33:45.606Z,0.41
2018-12-10T06:36:14.064Z,0.42
2018-12-10T06:38:42.136Z,0.44
2018-12-10T06:41:10.346Z,0.45
2018-12-10T06:43:38.585Z,0.46
2018-12-10T06:46:06.803Z,0.43
2018-12-10T06:48:35.022Z,0.50
2018-12-10T06:51:03.147Z,0.46
2018-12-10T06:53:31.770Z,0.57
2018-12-10T06:56:00.208Z,0.55
2018-12-10T06:58:28.431Z,0.57
2018-12-10T07:00:56.787Z,0.65
2018-12-10T07:03:25.213Z,0.69
2018-12-10T07:05:53.854Z,0.68
2018-12-10T07:08:22.360Z,0.68
2018-12-10T07:10:50.830Z,0.81
2018-12-10T07:13:19.403Z,0.77
2018-12-10T07:15:48.111Z,0.79
2018-12-10T07:18:16.456Z,0.81
2018-12-10T07:20:44.884Z,0.78
2018-12-10T07:23:13.083Z,0.83
2018-12-10T07:25:41.322Z,0.83
2018-12-10T07:28:09.606Z,0.82
2018-12-10T07:30:41.437Z,0.87
2018-12-10T07:33:08.053Z,0.89
2018-12-10T07:35:36.293Z,0.93
2018-12-10T07:38:04.566Z,1.00
2018-12-10T07:40:32.844Z,0.93
2018-12-10T07:43:01.120Z,0.83
2018-12-10T07:45:29.312Z,0.81
2018-12-10T07:47:57.611Z,0.75
2018-12-10T07:50:25.787Z,0.80
2018-12-10T07:52:53.961Z,0.77
2018-12-10T07:55:22.404Z,0.78
2018-12-10T07:57:52.892Z,0.78
2018-12-10T08:00:21.067Z,0.78
2018-12-10T08:02:49.287Z,0.75
2018-12-10T08:05:17.520Z,0.80
2018-12-10T08:07:45.927Z,0.78
2018-12-10T08:10:14.313Z,0.86
2018-12-10T08:12:42.553Z,0.85
2018-12-10T08:15:10.779Z,0.89
2018-12-10T08:17:39.008Z,0.84
2018-12-10T08:20:07.165Z,0.87
2018-12-10T08:22:35.408Z,1.01
2018-12-10T08:25:03.837Z,1.10
2018-12-10T08:27:32.026Z,1.14
2018-12-10T08:30:00.285Z,1.03
2018-12-10T08:32:28.686Z,1.04
2018-12-10T08:34:57.174Z,1.11
2018-12-10T08:37:25.447Z,1.20
2018-12-10T08:39:53.515Z,1.24
2018-12-10T08:42:21.527Z,1.27
2018-12-10T08:44:49.476Z,1.26
2018-12-10T08:47:17.639Z,1.32
2018-12-10T08:49:45.738Z,1.39
2018-12-10T08:52:14.538Z,1.50
2018-12-10T08:54:42.740Z,1.63
2018-12-10T08:57:11.158Z,1.65
2018-12-10T08:59:39.557Z,1.70
2018-12-10T09:02:07.704Z,1.75
2018-12-10T09:04:36.697Z,1.97
2018-12-10T09:07:05.049Z,2.11
2018-12-10T09:09:33.141Z,2.25
2018-12-10T09:12:01.221Z,2.29
2018-12-10T09:14:29.663Z,2.33
2018-12-10T09:16:57.988Z,2.15
2018-12-10T09:19:26.452Z,2.07
2018-12-10T09:21:54.765Z,2.10
2018-12-10T09:24:23.042Z,2.07
2018-12-10T09:26:51.867Z,2.08
2018-12-10T09:29:20.426Z,2.17
2018-12-10T09:31:49.089Z,2.24
2018-12-10T09:34:17.479Z,2.20
2018-12-10T09:36:45.819Z,2.19
2018-12-10T09:39:14.870Z,2.27
2018-12-10T09:41:43.168Z,2.54
2018-12-10T09:44:11.581Z,2.51
2018-12-10T09:46:40.282Z,2.49
2018-12-10T09:49:08.666Z,2.56
2018-12-10T09:51:37.067Z,2.47
2018-12-10T09:54:05.287Z,2.42
2018-12-10T09:56:33.565Z,2.35
2018-12-10T09:59:02.201Z,2.33
2018-12-10T10:01:30.271Z,2.58
2018-12-10T10:03:58.464Z,2.80
2018-12-10T10:06:43.921Z,3.18
2018-12-10T10:09:12.102Z,3.36
2018-12-10T10:11:40.225Z,3.40
2018-12-10T10:14:08.388Z,3.43
2018-12-10T10:16:36.489Z,3.16
2018-12-10T10:19:04.565Z,3.07
2018-12-10T10:21:33.092Z,3.11
2018-12-10T10:24:01.295Z,3.09
2018-12-10T10:26:29.539Z,3.09
2018-12-10T10:28:57.538Z,3.23
2018-12-10T10:31:25.486Z,3.40
2018-12-10T10:33:53.467Z,3.42
2018-12-10T10:36:21.553Z,3.44
2018-12-10T10:38:49.609Z,3.55
2018-12-10T10:41:17.636Z,3.51
2018-12-10T10:43:45.826Z,3.39
2018-12-10T10:46:14.069Z,3.29
2018-12-10T10:48:42.309Z,3.36
2018-12-10T10:51:10.391Z,3.35
2018-12-10T10:53:38.585Z,3.45
2018-12-10T10:56:06.586Z,3.36
2018-12-10T10:58:34.579Z,3.25
2018-12-10T11:01:08.050Z,3.22
2018-12-10T11:03:37.305Z,3.13
2018-12-10T11:06:06.519Z,3.07
2018-12-10T11:08:34.711Z,3.03
2018-12-10T11:11:02.861Z,3.02
2018-12-10T11:13:30.966Z,2.96
2018-12-10T11:15:59.241Z,3.02
2018-12-10T11:18:27.678Z,3.02
2018-12-10T11:20:56.066Z,3.02
2018-12-10T11:23:24.479Z,2.95
2018-12-10T11:25:52.393Z,2.92
2018-12-10T11:28:20.439Z,2.91
2018-12-10T11:30:48.601Z,2.95
2018-12-10T11:33:17.013Z,2.84
2018-12-10T11:35:45.736Z,2.94
2018-12-10T11:38:13.764Z,3.04
2018-12-10T11:40:41.827Z,3.10
2018-12-10T11:43:10.001Z,3.23
2018-12-10T11:45:38.115Z,3.19
2018-12-10T11:48:06.142Z,3.08
2018-12-10T11:50:34.737Z,3.17
2018-12-10T11:53:02.766Z,3.11
2018-12-10T11:55:30.666Z,3.10
2018-12-10T11:57:58.647Z,3.16
2018-12-10T12:00:26.945Z,3.13
2018-12-10T12:02:54.873Z,3.21
2018-12-10T12:05:22.870Z,3.17
2018-12-10T12:07:50.943Z,3.12
2018-12-10T12:10:18.877Z,3.18
2018-12-10T12:12:46.927Z,3.24
2018-12-10T12:15:15.736Z,3.35
2018-12-10T12:17:43.843Z,3.42
2018-12-10T12:20:12.041Z,3.43
2018-12-10T12:22:40.333Z,3.40
2018-12-10T12:25:08.298Z,3.38
2018-12-10T12:27:36.827Z,3.38
2018-12-10T12:30:06.020Z,3.47
2018-12-10T12:32:34.715Z,3.60
2018-12-10T12:35:03.026Z,3.49
2018-12-10T12:37:31.466Z,3.42
2018-12-10T12:39:59.504Z,3.35
2018-12-10T12:42:27.631Z,3.31
2018-12-10T12:44:55.616Z,3.29
2018-12-10T12:47:23.559Z,3.27
2018-12-10T12:49:51.605Z,3.09
2018-12-10T12:52:19.662Z,3.06
2018-12-10T12:54:47.575Z,3.01
2018-12-10T12:57:15.541Z,2.96
2018-12-10T12:59:43.579Z,2.98
2018-12-10T13:02:11.663Z,2.96
2018-12-10T13:04:39.640Z,2.98
2018-12-10T13:07:08.022Z,2.99
2018-12-10T13:09:36.018Z,3.03
2018-12-10T13:12:04.023Z,3.01
2018-12-10T13:14:32.227Z,2.98
2018-12-10T13:17:00.270Z,2.91
2018-12-10T13:19:29.733Z,2.87
2018-12-10T13:21:57.992Z,2.84
2018-12-10T13:24:26.192Z,2.82
2018-12-10T13:26:54.368Z,2.98
2018-12-10T13:29:30.997Z,3.11
2018-12-10T13:31:59.781Z,3.03
2018-12-10T13:34:28.084Z,3.01
2018-12-10T13:36:56.270Z,2.94
2018-12-10T13:39:24.536Z,3.07
2018-12-10T13:41:52.814Z,3.00
2018-12-10T13:44:20.991Z,2.93
2018-12-10T13:46:49.217Z,2.94
2018-12-10T13:49:17.485Z,3.03
2018-12-10T13:51:45.693Z,3.15
2018-12-10T13:54:13.868Z,3.08
2018-12-10T13:56:42.409Z,2.99
2018-12-10T13:59:11.207Z,2.88
2018-12-10T14:01:39.578Z,2.87
2018-12-10T14:04:12.964Z,2.95
2018-12-10T14:06:41.294Z,2.91
2018-12-10T14:09:09.567Z,2.88
2018-12-10T14:11:38.358Z,2.88
2018-12-10T14:14:08.378Z,2.94
2018-12-10T14:16:36.699Z,2.90
2018-12-10T14:19:05.354Z,2.80
2018-12-10T14:21:33.681Z,2.86
2018-12-10T14:24:01.879Z,2.74
2018-12-10T14:26:30.122Z,2.65
2018-12-10T14:28:58.268Z,2.61
2018-12-10T14:31:27.443Z,2.64
2018-12-10T14:33:57.711Z,2.55
2018-12-10T14:36:25.624Z,2.49
2018-12-10T14:38:54.167Z,2.47
2018-12-10T14:41:22.266Z,2.61
2018-12-10T14:43:50.215Z,2.60
2018-12-10T14:46:18.289Z,2.49
2018-12-10T14:48:46.314Z,2.50
2018-12-10T14:51:14.243Z,2.40
2018-12-10T14:53:42.224Z,2.39
2018-12-10T14:56:10.326Z,2.39
2018-12-10T14:58:38.569Z,2.41
2018-12-10T15:01:06.596Z,2.39
2018-12-10T15:03:34.614Z,2.36
2018-12-10T15:06:03.054Z,2.42
2018-12-10T15:08:31.213Z,2.41
2018-12-10T15:10:59.431Z,2.58
2018-12-10T15:13:27.627Z,2.43
2018-12-10T15:15:55.858Z,2.49
2018-12-10T15:18:24.168Z,2.43
2018-12-10T15:20:52.296Z,2.52
2018-12-10T15:23:20.273Z,2.44
2018-12-10T15:25:48.625Z,2.52
2018-12-10T15:28:16.601Z,2.42
2018-12-10T15:30:44.626Z,2.44
2018-12-10T15:33:12.732Z,2.43
2018-12-10T15:35:41.043Z,2.34
2018-12-10T15:38:09.523Z,2.27
2018-12-10T15:40:37.930Z,2.10
2018-12-10T15:43:06.115Z,2.18
2018-12-10T15:45:34.388Z,2.14
2018-12-10T15:48:02.875Z,2.07
2018-12-10T15:50:30.929Z,2.00
2018-12-10T15:52:59.128Z,1.85
2018-12-10T15:55:27.326Z,1.65
2018-12-10T15:57:55.243Z,1.55
2018-12-10T16:00:23.283Z,1.51
2018-12-10T16:02:51.450Z,1.49
2018-12-10T16:05:19.535Z,1.42
2018-12-10T16:07:47.675Z,1.31
2018-12-10T16:10:15.749Z,1.43
2018-12-10T16:12:43.775Z,1.42
2018-12-10T16:15:11.786Z,1.28
2018-12-10T16:17:40.662Z,1.19
2018-12-10T16:20:09.339Z,1.14
2018-12-10T16:22:37.799Z,1.02
2018-12-10T16:25:06.171Z,1.19
2018-12-10T16:27:34.574Z,1.05
2018-12-10T16:30:02.926Z,1.17
2018-12-10T16:32:31.789Z,1.01
2018-12-10T16:34:59.955Z,0.89
2018-12-10T16:37:28.140Z,1.04
2018-12-10T16:39:56.322Z,0.99
2018-12-10T16:42:24.711Z,0.96
2018-12-10T16:44:52.806Z,0.95
2018-12-10T16:47:20.753Z,1.05
2018-12-10T16:49:48.761Z,0.92
2018-12-10T16:52:16.857Z,0.92
2018-12-10T16:54:45.000Z,1.19
2018-12-10T16:57:13.365Z,1.22
2018-12-10T16:59:41.555Z,1.14
2018-12-10T17:02:10.818Z,1.27
2018-12-10T17:04:39.114Z,1.28
2018-12-10T17:07:07.359Z,1.22
2018-12-10T17:09:35.987Z,1.19
2018-12-10T17:12:04.682Z,1.20
2018-12-10T17:14:32.977Z,1.15
2018-12-10T17:17:01.290Z,1.19
2018-12-10T17:19:29.840Z,1.18
2018-12-10T17:21:59.570Z,1.05
2018-12-10T17:24:27.816Z,1.26
2018-12-10T17:26:56.053Z,1.09
2018-12-10T17:29:25.803Z,1.06
2018-12-10T17:31:55.245Z,0.88
2018-12-10T17:34:23.429Z,0.67
2018-12-10T17:36:51.610Z,0.57
2018-12-10T17:39:20.001Z,0.43
2018-12-10T17:41:48.134Z,0.38
2018-12-10T17:44:16.337Z,0.45
2018-12-10T17:46:44.595Z,0.45
2018-12-10T17:49:12.878Z,0.58
2018-12-10T17:51:41.197Z,0.70
2018-12-10T17:54:10.236Z,0.95
2018-12-10T17:56:38.845Z,0.99
2018-12-10T17:59:07.296Z,1.18
2018-12-10T18:01:35.518Z,1.29
2018-12-10T18:04:03.770Z,1.52
2018-12-10T18:06:31.883Z,1.51
2018-12-10T18:09:00.305Z,1.58
2018-12-10T18:11:28.682Z,1.51
2018-12-10T18:13:57.024Z,1.53
2018-12-10T18:16:25.167Z,1.41
2018-12-10T18:18:53.678Z,1.32
2018-12-10T18:21:21.712Z,1.28
2018-12-10T18:23:49.912Z,1.30
2018-12-10T18:26:18.157Z,1.12
2018-12-10T18:28:46.367Z,1.01
2018-12-10T18:31:14.513Z,0.90
2018-12-10T18:33:42.912Z,0.83
2018-12-10T18:36:12.060Z,0.71
2018-12-10T18:38:40.240Z,0.61
2018-12-10T18:41:08.273Z,0.68
2018-12-10T18:43:36.315Z,0.53
2018-12-10T18:46:04.520Z,0.31
2018-12-10T18:48:33.079Z,0.30
2018-12-10T18:51:01.172Z,0.17
2018-12-10T18:53:29.266Z,0.03
2018-12-10T18:55:57.497Z,-0.06
2018-12-10T18:58:25.599Z,-0.09
2018-12-10T19:00:53.670Z,-0.19
2018-12-10T19:03:21.708Z,-0.22
2018-12-10T19:05:49.931Z,-0.24
2018-12-10T19:08:18.608Z,-0.17
2018-12-10T19:10:46.846Z,-0.04
2018-12-10T19:13:14.908Z,-0.05
2018-12-10T19:15:43.152Z,0.06
2018-12-10T19:18:11.289Z,0.15
2018-12-10T19:20:39.505Z,0.24
2018-12-10T19:23:07.736Z,0.24
2018-12-10T19:25:35.975Z,0.40
2018-12-10T19:28:04.436Z,0.62
2018-12-10T19:30:33.003Z,0.66
2018-12-10T19:33:01.252Z,0.67
2018-12-10T19:35:29.721Z,0.68
2018-12-10T19:37:57.878Z,0.61
2018-12-10T19:40:25.989Z,0.54
2018-12-10T19:42:54.264Z,0.55
2018-12-10T19:45:22.618Z,0.55
2018-12-10T19:47:51.073Z,0.58
2018-12-10T19:50:19.729Z,0.63
2018-12-10T19:52:48.019Z,0.87
2018-12-10T19:55:16.919Z,0.91
2018-12-10T19:57:44.944Z,0.86
2018-12-10T20:00:13.307Z,0.92
2018-12-10T20:02:41.531Z,0.77
2018-12-10T20:05:09.647Z,0.70
2018-12-10T20:07:37.899Z,0.65
2018-12-10T20:10:07.876Z,0.68
2018-12-10T20:12:36.519Z,0.77
2018-12-10T20:15:06.407Z,0.66
2018-12-10T20:17:34.533Z,0.66
2018-12-10T20:20:03.015Z,0.73
2018-12-10T20:22:31.206Z,0.85
2018-12-10T20:24:59.357Z,0.76
2018-12-10T20:27:27.648Z,0.68
2018-12-10T20:29:56.076Z,0.65
2018-12-10T20:32:24.328Z,0.59
2018-12-10T20:34:52.613Z,0.52
2018-12-10T20:37:21.139Z,0.58
2018-12-10T20:39:49.422Z,0.54
2018-12-10T20:42:17.735Z,0.52
2018-12-10T20:44:46.068Z,0.61
2018-12-10T20:47:14.160Z,0.64
2018-12-10T20:49:42.276Z,0.66
2018-12-10T20:52:10.657Z,0.60
2018-12-10T20:54:39.193Z,0.64
2018-12-10T20:57:07.370Z,0.65
2018-12-10T20:59:35.703Z,0.70
2018-12-10T21:02:03.886Z,0.60
2018-12-10T21:04:32.051Z,0.50
2018-12-10T21:07:00.190Z,0.41
2018-12-10T21:09:28.319Z,0.29
2018-12-10T21:11:56.662Z,0.23
2018-12-10T21:14:24.821Z,0.18
2018-12-10T21:16:52.921Z,0.25
2018-12-10T21:19:21.362Z,0.26
2018-12-10T21:21:49.524Z,0.56
2018-12-10T21:24:17.543Z,0.56
2018-12-10T21:26:45.710Z,0.51
2018-12-10T21:29:13.926Z,0.30
2018-12-10T21:31:42.551Z,0.33
2018-12-10T21:34:10.870Z,0.44
2018-12-10T21:36:38.980Z,0.43
2018-12-10T21:39:07.969Z,0.43
2018-12-10T21:41:36.028Z,0.30
2018-12-10T21:44:05.002Z,0.35
2018-12-10T21:46:33.076Z,0.23
2018-12-10T21:49:01.052Z,0.16
2018-12-10T21:51:29.079Z,0.19
2018-12-10T21:53:57.089Z,0.24
2018-12-10T21:56:25.111Z,0.30
2018-12-10T21:58:53.090Z,0.24
2018-12-10T22:01:21.141Z,0.23
2018-12-10T22:03:49.137Z,0.21
2018-12-10T22:06:17.220Z,0.17
2018-12-10T22:08:45.321Z,0.18
2018-12-10T22:11:13.305Z,0.15
2018-12-10T22:13:41.296Z,0.14
2018-12-10T22:16:09.388Z,0.15
2018-12-10T22:18:37.384Z,0.14
2018-12-10T22:21:05.460Z,0.36
2018-12-10T22:23:33.637Z,0.29
2018-12-10T22:26:01.615Z,0.57
2018-12-10T22:28:29.580Z,0.63
2018-12-10T22:30:57.574Z,0.80
2018-12-10T22:33:25.508Z,0.78
2018-12-10T22:35:53.522Z,0.65
2018-12-10T22:38:21.505Z,0.53
2018-12-10T22:40:49.487Z,0.62
2018-12-10T22:43:17.438Z,0.54
2018-12-10T22:45:45.404Z,0.54
2018-12-10T22:48:13.339Z,0.73
2018-12-10T22:50:41.314Z,0.78
2018-12-10T22:53:09.312Z,0.58
2018-12-10T22:55:37.288Z,0.47
2018-12-10T22:58:05.313Z,0.39
2018-12-10T23:00:38.900Z,0.33
2018-12-10T23:03:06.922Z,0.40
2018-12-10T23:05:34.897Z,0.49
2018-12-10T23:08:02.947Z,0.52
2018-12-10T23:10:30.926Z,0.48
2018-12-10T23:12:58.905Z,0.42
2018-12-10T23:15:26.930Z,0.41
2018-12-10T23:17:54.850Z,0.41
2018-12-10T23:20:22.824Z,0.44
2018-12-10T23:22:50.820Z,0.35
2018-12-10T23:25:18.791Z,0.35
2018-12-10T23:27:46.752Z,0.31
2018-12-10T23:30:14.774Z,0.36
2018-12-10T23:32:42.768Z,0.40
2018-12-10T23:35:10.819Z,0.36
2018-12-10T23:37:39.013Z,0.43
2018-12-10T23:40:07.059Z,0.35
2018-12-10T23:42:35.197Z,0.35
2018-12-10T23:45:03.268Z,0.29
2018-12-10T23:47:31.319Z,0.19
2018-12-10T23:49:59.321Z,0.14
2018-12-10T23:52:27.362Z,0.14
2018-12-10T23:54:55.351Z,0.16
2018-12-10T23:57:23.310Z,0.14
2018-12-10T23:59:51.296Z,0.16
